WXM80 ListenWXM80 Stop

You find our weather info also at:

UK Metoffice

WeatherCloud

Weather Underground

Northeastern Weather Network

AWEKAS

Citizen Weather Observer Program (CWOP)

HAMweather, WeatherForYou, PWS Weather


Weather Underground History page Text

Daily Summary for February 16, 2016 Units:  English    Metric   Both
« Previous Day
Next Day »
Daily Weekly Monthly Yearly Custom
  High: Low: Average:
Temperature: 57.6 °F 35.0 °F 49.9 °F
Dew Point: 55.5 °F 31.6 °F 47.2 °F
Humidity: 98 % 76 % 91 %
Wind Speed: 20.2 mph 0.0 mph 7.8 mph
Wind Gust: 42.0 mph - -
Wind:- - South
Pressure: 30.08 in 29.40 in -
Precipitation: 0.52 in    
Historical Graphs
 
 
Tabular Data for February 16, 2016
Time Temperature Dew Point Pressure Wind Wind Speed Wind Gust Humidity Rainfall Rate (Hourly)
00:01 35.3 °F 34.5 °F 30.08 in ENE 0.5 mph 2.3 mph 97 % 0.27 in
00:06 35.3 °F 34.5 °F 30.08 in ENE 1.2 mph 2.3 mph 97 % 0.30 in
00:11 35.3 °F 34.5 °F 30.08 in NE 2.5 mph 5.0 mph 97 % 0.31 in
00:16 35.2 °F 34.4 °F 30.08 in ENE 0.1 mph 1.2 mph 97 % 0.30 in
00:21 35.2 °F 34.4 °F 30.08 in ENE 2.7 mph 4.0 mph 97 % 0.29 in
00:26 35.1 °F 34.3 °F 30.07 in NE 2.6 mph 3.5 mph 97 % 0.26 in
00:31 35.1 °F 34.3 °F 30.07 in NE 0.4 mph 3.5 mph 97 % 0.23 in
00:36 35.0 °F 34.2 °F 30.07 in Calm   2.3 mph 97 % 0.21 in
00:41 35.0 °F 34.2 °F 30.07 in NE 0.9 mph 2.3 mph 97 % 0.19 in
00:47 35.1 °F 34.3 °F 30.06 in Calm     97 % 0.16 in
00:52 35.0 °F 34.2 °F 30.06 in NE 1.0 mph 3.5 mph 97 % 0.12 in
00:57 35.1 °F 34.3 °F 30.05 in SSW 2.0 mph 4.6 mph 97 % 0.08 in
01:02 35.7 °F 34.9 °F 30.05 in SSW 5.5 mph 10.4 mph 97 % 0.04 in
01:07 39.5 °F 39.0 °F 30.04 in SSW 6.5 mph 11.5 mph 98 % 0.00 in
01:12 42.0 °F 41.5 °F 30.05 in WSW 5.9 mph 11.5 mph 98 % 0.00 in
01:17 44.3 °F 43.8 °F 30.04 in SSW 5.6 mph 11.5 mph 98 % 0.00 in
01:22 45.6 °F 45.1 °F 30.04 in SSW 6.8 mph 12.7 mph 98 % 0.00 in
01:27 46.3 °F 45.8 °F 30.04 in SSW 6.7 mph 12.0 mph 98 % 0.00 in
01:32 46.7 °F 46.2 °F 30.03 in SSW 4.9 mph 9.0 mph 98 % 0.00 in
01:38 47.1 °F 46.6 °F 30.04 in SSE 6.1 mph 11.5 mph 98 % 0.00 in
01:43 47.3 °F 46.8 °F 30.04 in SSW 5.5 mph 11.5 mph 98 % 0.00 in
01:48 47.4 °F 46.9 °F 30.03 in South 6.3 mph 11.5 mph 98 % 0.00 in
01:53 47.6 °F 47.1 °F 30.03 in SW 5.4 mph 15.0 mph 98 % 0.00 in
01:58 47.8 °F 47.3 °F 30.04 in SW 6.6 mph 10.4 mph 98 % 0.00 in
02:03 47.8 °F 47.3 °F 30.04 in SSW 5.7 mph 8.1 mph 98 % 0.00 in
02:08 47.8 °F 47.3 °F 30.03 in South 5.2 mph 8.1 mph 98 % 0.00 in
02:13 47.8 °F 47.3 °F 30.03 in SSW 7.1 mph 13.0 mph 98 % 0.00 in
02:18 47.8 °F 47.3 °F 30.03 in South 3.4 mph 5.8 mph 98 % 0.00 in
02:23 47.9 °F 47.4 °F 30.03 in SSW 7.2 mph 11.5 mph 98 % 0.00 in
02:29 48.2 °F 47.7 °F 30.02 in South 6.9 mph 10.4 mph 98 % 0.00 in
02:34 48.4 °F 47.9 °F 30.02 in South 7.3 mph 12.0 mph 98 % 0.00 in
02:39 48.6 °F 48.1 °F 30.02 in SSW 7.9 mph 11.5 mph 98 % 0.00 in
02:44 48.7 °F 48.2 °F 30.02 in South 8.0 mph 12.0 mph 98 % 0.00 in
02:49 48.8 °F 48.3 °F 30.02 in South 7.3 mph 16.0 mph 98 % 0.00 in
02:54 49.1 °F 48.6 °F 30.02 in South 8.7 mph 19.6 mph 98 % 0.00 in
03:04 49.3 °F 48.8 °F 30.01 in South 10.2 mph 15.0 mph 98 % 0.00 in
03:09 49.4 °F 48.9 °F 30.01 in SW 7.9 mph 11.5 mph 98 % 0.00 in
03:14 49.4 °F 48.9 °F 30.01 in South 7.1 mph 16.1 mph 98 % 0.00 in
03:20 49.5 °F 49.0 °F 30.01 in SW 9.8 mph 14.0 mph 98 % 0.00 in
03:25 49.7 °F 49.2 °F 30.01 in SW 6.5 mph 15.0 mph 98 % 0.00 in
03:35 50.1 °F 49.3 °F 30.00 in South 6.8 mph 16.1 mph 97 % 0.00 in
03:40 50.4 °F 49.6 °F 30.00 in South 7.7 mph 15.0 mph 97 % 0.00 in
03:45 50.7 °F 49.6 °F 30.00 in South 8.7 mph 16.1 mph 96 % 0.00 in
03:50 50.9 °F 49.5 °F 30.00 in South 7.7 mph 13.8 mph 95 % 0.00 in
03:55 51.1 °F 49.4 °F 30.00 in SSW 10.2 mph 17.3 mph 94 % 0.00 in
04:00 51.4 °F 49.4 °F 29.99 in SSW 6.7 mph 13.8 mph 93 % 0.00 in
04:05 51.4 °F 49.2 °F 29.99 in SSE 9.9 mph 13.8 mph 92 % 0.00 in
04:11 51.4 °F 49.2 °F 29.98 in South 7.6 mph 17.3 mph 92 % 0.00 in
04:21 51.5 °F 49.0 °F 29.98 in South 6.9 mph 10.4 mph 91 % 0.00 in
04:26 51.8 °F 49.3 °F 29.98 in South 6.3 mph 15.0 mph 91 % 0.00 in
04:31 51.8 °F 49.0 °F 29.98 in South 7.5 mph 13.8 mph 90 % 0.00 in
04:36 51.7 °F 48.6 °F 29.98 in SW 8.1 mph 16.1 mph 89 % 0.00 in
04:41 51.7 °F 48.6 °F 29.98 in South 9.4 mph 18.4 mph 89 % 0.00 in
04:46 51.9 °F 49.1 °F 29.97 in SSW 6.4 mph 15.0 mph 90 % 0.00 in
04:51 52.0 °F 48.9 °F 29.97 in SSW 7.3 mph 11.5 mph 89 % 0.00 in
05:02 51.9 °F 48.8 °F 29.97 in South 6.7 mph 12.7 mph 89 % 0.00 in
05:07 51.8 °F 48.7 °F 29.97 in South 8.5 mph 12.7 mph 89 % 0.00 in
05:12 51.9 °F 48.8 °F 29.96 in South 8.5 mph 15.0 mph 89 % 0.00 in
05:17 51.9 °F 48.8 °F 29.96 in SSE 5.9 mph 9.2 mph 89 % 0.00 in
05:22 51.8 °F 48.7 °F 29.96 in South 2.9 mph 11.5 mph 89 % 0.00 in
05:27 51.6 °F 48.5 °F 29.95 in SSE 4.7 mph 10.4 mph 89 % 0.00 in
05:32 51.4 °F 48.3 °F 29.95 in South 8.8 mph 17.3 mph 89 % 0.00 in
05:37 51.1 °F 48.0 °F 29.95 in SSE 6.8 mph 11.5 mph 89 % 0.00 in
05:42 50.8 °F 48.0 °F 29.95 in SE 8.6 mph 12.0 mph 90 % 0.00 in
05:47 50.6 °F 47.8 °F 29.95 in SSE 9.1 mph 13.0 mph 90 % 0.00 in
05:53 50.4 °F 47.9 °F 29.95 in South 8.5 mph 15.0 mph 91 % 0.00 in
05:58 50.2 °F 47.7 °F 29.95 in SSW 8.3 mph 17.3 mph 91 % 0.00 in
06:03 50.1 °F 47.6 °F 29.93 in South 9.0 mph 16.1 mph 91 % 0.00 in
06:08 50.2 °F 47.7 °F 29.94 in SSE 3.6 mph 10.0 mph 91 % 0.00 in
06:13 50.2 °F 48.0 °F 29.93 in SSE 5.8 mph 14.0 mph 92 % 0.00 in
06:18 50.4 °F 48.2 °F 29.93 in SE 4.4 mph 11.0 mph 92 % 0.00 in
06:23 50.5 °F 48.3 °F 29.93 in SE 12.4 mph 20.0 mph 92 % 0.00 in
06:28 50.7 °F 48.5 °F 29.92 in SSE 8.9 mph 19.6 mph 92 % 0.00 in
06:33 50.9 °F 48.4 °F 29.92 in SSE 7.4 mph 13.8 mph 91 % 0.00 in
06:38 51.1 °F 48.6 °F 29.92 in South 7.9 mph 12.0 mph 91 % 0.00 in
06:49 51.6 °F 48.8 °F 29.91 in SE 7.2 mph 11.5 mph 90 % 0.00 in
06:54 51.9 °F 49.1 °F 29.92 in South 8.8 mph 24.2 mph 90 % 0.00 in
06:59 52.1 °F 49.3 °F 29.91 in South 9.9 mph 20.7 mph 90 % 0.00 in
07:04 52.1 °F 49.0 °F 29.90 in SSE 7.4 mph 17.0 mph 89 % 0.00 in
07:09 52.2 °F 49.1 °F 29.90 in SSE 6.3 mph 10.4 mph 89 % 0.00 in
07:14 52.3 °F 49.2 °F 29.90 in SSE 6.7 mph 11.5 mph 89 % 0.00 in
07:24 52.6 °F 49.4 °F 29.90 in SSE 8.5 mph 19.6 mph 89 % 0.00 in
07:29 52.6 °F 49.1 °F 29.89 in SSE 14.0 mph 18.4 mph 88 % 0.00 in
07:35 52.7 °F 49.5 °F 29.89 in SSE 11.8 mph 13.0 mph 89 % 0.00 in
07:40 52.8 °F 49.3 °F 29.90 in South 7.4 mph 19.6 mph 88 % 0.00 in
07:45 52.8 °F 49.3 °F 29.90 in SE 10.6 mph 18.4 mph 88 % 0.00 in
07:50 53.0 °F 49.5 °F 29.90 in SSE 6.8 mph 24.2 mph 88 % 0.00 in
07:55 53.2 °F 49.7 °F 29.89 in South 11.0 mph 21.0 mph 88 % 0.00 in
08:00 53.4 °F 49.9 °F 29.89 in SSE 9.6 mph 18.4 mph 88 % 0.00 in
08:05 53.6 °F 50.1 °F 29.88 in SSE 8.2 mph 13.8 mph 88 % 0.00 in
08:10 53.8 °F 50.0 °F 29.89 in East 6.2 mph 11.5 mph 87 % 0.00 in
08:15 53.9 °F 50.1 °F 29.87 in SSE 11.9 mph 19.6 mph 87 % 0.00 in
08:20 54.1 °F 50.3 °F 29.87 in SSW 14.8 mph 31.1 mph 87 % 0.00 in
08:26 54.1 °F 50.3 °F 29.87 in SSW 11.8 mph 16.1 mph 87 % 0.00 in
08:31 54.3 °F 50.5 °F 29.86 in SSE 12.5 mph 21.9 mph 87 % 0.00 in
08:36 54.4 °F 50.3 °F 29.86 in South 15.5 mph 23.0 mph 86 % 0.00 in
08:41 54.6 °F 50.5 °F 29.86 in SE 10.4 mph 21.0 mph 86 % 0.00 in
08:51 54.8 °F 50.7 °F 29.85 in SSW 8.8 mph 16.1 mph 86 % 0.00 in
08:56 55.1 °F 51.0 °F 29.85 in SSE 12.5 mph 19.6 mph 86 % 0.00 in
09:01 55.2 °F 50.8 °F 29.85 in SSW 11.6 mph 17.3 mph 85 % 0.00 in
09:06 55.2 °F 50.8 °F 29.85 in South 9.6 mph 14.0 mph 85 % 0.00 in
09:11 55.2 °F 51.1 °F 29.85 in South 10.7 mph 19.6 mph 86 % 0.00 in
09:17 55.4 °F 51.0 °F 29.85 in SSE 7.0 mph 12.7 mph 85 % 0.00 in
09:22 55.4 °F 51.0 °F 29.84 in South 14.3 mph 19.6 mph 85 % 0.00 in
09:27 55.3 °F 51.2 °F 29.84 in South 10.1 mph 18.4 mph 86 % 0.00 in
09:32 55.1 °F 51.0 °F 29.83 in SSE 6.3 mph 13.8 mph 86 % 0.00 in
09:42 54.7 °F 51.5 °F 29.83 in SSW 8.3 mph 15.0 mph 89 % 0.00 in
09:47 54.2 °F 51.3 °F 29.83 in SSE 7.4 mph 19.0 mph 90 % 0.00 in
09:52 53.9 °F 51.3 °F 29.82 in SE 9.4 mph 21.9 mph 91 % 0.01 in
09:57 53.6 °F 51.0 °F 29.81 in SSE 7.8 mph 8.1 mph 91 % 0.01 in
10:02 53.6 °F 51.3 °F 29.81 in SSE 6.8 mph 14.0 mph 92 % 0.01 in
10:08 53.7 °F 51.4 °F 29.79 in South 11.9 mph 20.0 mph 92 % 0.01 in
10:13 54.0 °F 51.4 °F 29.79 in SSE 8.8 mph 25.3 mph 91 % 0.01 in
10:18 54.2 °F 51.3 °F 29.78 in SSE 9.4 mph 19.6 mph 90 % 0.01 in
10:23 54.5 °F 51.6 °F 29.78 in South 5.9 mph 12.7 mph 90 % 0.01 in
10:28 54.7 °F 51.5 °F 29.77 in SSE 11.0 mph 15.0 mph 89 % 0.01 in
10:33 54.8 °F 51.6 °F 29.77 in SSE 9.0 mph 14.0 mph 89 % 0.01 in
10:38 55.1 °F 51.9 °F 29.78 in SE 11.5 mph 19.6 mph 89 % 0.01 in
10:43 55.4 °F 52.2 °F 29.77 in South 10.0 mph 15.0 mph 89 % 0.01 in
10:48 55.5 °F 52.3 °F 29.76 in South 10.8 mph 20.7 mph 89 % 0.01 in
10:53 55.5 °F 52.3 °F 29.77 in SE 11.5 mph 17.0 mph 89 % 0.00 in
10:59 55.4 °F 52.5 °F 29.76 in ESE 13.4 mph 18.4 mph 90 % 0.00 in
11:04 55.3 °F 52.7 °F 29.76 in South 12.8 mph 24.2 mph 91 % 0.00 in
11:09 55.1 °F 52.5 °F 29.76 in South 9.8 mph 16.1 mph 91 % 0.00 in
11:14 55.1 °F 52.5 °F 29.75 in South 10.3 mph 20.7 mph 91 % 0.00 in
11:19 55.2 °F 52.6 °F 29.74 in SSE 5.7 mph 18.4 mph 91 % 0.00 in
11:24 55.3 °F 52.7 °F 29.73 in SE 7.8 mph 12.7 mph 91 % 0.00 in
11:29 55.5 °F 52.6 °F 29.72 in SSE 13.9 mph 27.0 mph 90 % 0.00 in
11:34 55.5 °F 52.6 °F 29.71 in SSE 12.1 mph 20.7 mph 90 % 0.00 in
11:39 55.5 °F 52.3 °F 29.69 in SE 7.2 mph 17.3 mph 89 % 0.00 in
11:44 55.6 °F 52.4 °F 29.68 in SSE 12.6 mph 19.6 mph 89 % 0.00 in
11:50 55.8 °F 52.3 °F 29.68 in South 11.3 mph 20.7 mph 88 % 0.00 in
11:55 55.9 °F 52.4 °F 29.67 in SE 11.1 mph 21.9 mph 88 % 0.00 in
12:00 56.0 °F 52.5 °F 29.66 in SE 14.3 mph 26.5 mph 88 % 0.00 in
12:05 56.0 °F 52.2 °F 29.65 in SE 7.5 mph 25.3 mph 87 % 0.00 in
12:10 56.0 °F 52.2 °F 29.64 in SE 17.8 mph 31.1 mph 87 % 0.00 in
12:15 56.2 °F 52.4 °F 29.63 in SE 10.9 mph 17.3 mph 87 % 0.00 in
12:30 57.2 °F 52.7 °F 29.61 in SSE 11.9 mph 18.4 mph 85 % 0.00 in
12:35 57.6 °F 52.8 °F 29.60 in SSE 15.9 mph 27.0 mph 84 % 0.00 in
12:41 57.5 °F 53.3 °F 29.60 in SE 11.0 mph 27.6 mph 86 % 0.00 in
12:46 56.9 °F 53.4 °F 29.59 in SSE 16.3 mph 25.3 mph 88 % 0.01 in
12:51 56.3 °F 53.4 °F 29.58 in South 9.3 mph 15.0 mph 90 % 0.02 in
12:56 56.0 °F 53.4 °F 29.56 in SSW 11.3 mph 17.3 mph 91 % 0.02 in
13:01 55.9 °F 53.3 °F 29.56 in SE 11.5 mph 20.7 mph 91 % 0.03 in
13:06 55.7 °F 53.1 °F 29.56 in SSE 10.8 mph 24.0 mph 91 % 0.04 in
13:11 55.5 °F 53.2 °F 29.55 in SE 11.0 mph 19.0 mph 92 % 0.05 in
13:16 55.6 °F 53.3 °F 29.55 in SE 12.0 mph 27.0 mph 92 % 0.05 in
13:21 55.6 °F 53.6 °F 29.53 in SSE 10.3 mph 19.6 mph 93 % 0.06 in
13:26 55.3 °F 53.6 °F 29.53 in SSE 6.7 mph 13.0 mph 94 % 0.10 in
13:32 55.0 °F 53.0 °F 29.53 in ESE 12.6 mph 26.5 mph 93 % 0.13 in
13:37 54.7 °F 53.0 °F 29.52 in SE 10.7 mph 26.5 mph 94 % 0.15 in
13:42 54.5 °F 52.8 °F 29.52 in SE 12.5 mph 24.2 mph 94 % 0.17 in
13:47 54.4 °F 52.7 °F 29.51 in South 12.9 mph 23.0 mph 94 % 0.17 in
13:52 54.5 °F 52.8 °F 29.50 in South 16.4 mph 26.0 mph 94 % 0.17 in
13:57 54.5 °F 52.8 °F 29.49 in South 11.4 mph 27.6 mph 94 % 0.17 in
14:02 54.5 °F 52.8 °F 29.48 in SSW 17.1 mph 26.5 mph 94 % 0.18 in
14:07 54.5 °F 52.8 °F 29.48 in SSE 7.4 mph 26.5 mph 94 % 0.18 in
14:12 54.6 °F 52.9 °F 29.47 in SSW 15.6 mph 26.5 mph 94 % 0.18 in
14:18 54.7 °F 53.0 °F 29.45 in SSE 13.9 mph 32.2 mph 94 % 0.18 in
14:23 54.7 °F 53.0 °F 29.45 in SSW 15.9 mph 26.5 mph 94 % 0.18 in
14:28 54.7 °F 53.0 °F 29.45 in SSE 12.4 mph 21.9 mph 94 % 0.15 in
14:33 54.8 °F 53.4 °F 29.44 in SSW 11.4 mph 23.0 mph 95 % 0.13 in
14:38 54.9 °F 53.5 °F 29.43 in SSE 9.0 mph 23.0 mph 95 % 0.13 in
14:43 55.0 °F 53.6 °F 29.42 in SE 10.3 mph 19.6 mph 95 % 0.12 in
14:48 55.0 °F 53.6 °F 29.41 in SE 12.4 mph 19.6 mph 95 % 0.12 in
14:53 55.1 °F 53.7 °F 29.41 in South 10.3 mph 17.3 mph 95 % 0.11 in
15:03 55.9 °F 54.8 °F 29.40 in SE 20.2 mph 42.0 mph 96 % 0.11 in
15:09 56.3 °F 54.9 °F 29.41 in SE 10.1 mph 23.0 mph 95 % 0.11 in
15:14 56.6 °F 55.5 °F 29.40 in South 13.6 mph 31.1 mph 96 % 0.11 in
15:19 56.8 °F 55.4 °F 29.41 in South 13.8 mph 29.9 mph 95 % 0.11 in
15:24 56.6 °F 55.2 °F 29.42 in South 10.5 mph 26.5 mph 95 % 0.09 in
15:29 56.5 °F 55.1 °F 29.42 in SSW 12.5 mph 32.0 mph 95 % 0.10 in
15:34 56.3 °F 54.6 °F 29.40 in SW 15.6 mph 32.0 mph 94 % 0.09 in
15:39 56.2 °F 54.5 °F 29.41 in SSE 9.1 mph 24.2 mph 94 % 0.10 in
15:44 55.9 °F 54.2 °F 29.42 in SSW 11.8 mph 24.2 mph 94 % 0.10 in
15:49 55.6 °F 53.9 °F 29.41 in South 11.8 mph 22.0 mph 94 % 0.10 in
15:54 55.2 °F 53.5 °F 29.43 in SW 10.6 mph 17.3 mph 94 % 0.10 in
16:00 54.8 °F 53.1 °F 29.42 in South 8.7 mph 21.9 mph 94 % 0.10 in
16:05 54.4 °F 52.7 °F 29.43 in South 8.6 mph 15.0 mph 94 % 0.10 in
16:15 53.7 °F 52.0 °F 29.44 in SSW 5.8 mph 19.6 mph 94 % 0.10 in
16:20 53.5 °F 51.8 °F 29.44 in SSW 7.4 mph 11.5 mph 94 % 0.10 in
16:25 53.2 °F 51.5 °F 29.43 in South 8.8 mph 16.1 mph 94 % 0.09 in
16:30 52.9 °F 51.2 °F 29.43 in South 6.0 mph 9.0 mph 94 % 0.09 in
16:35 52.7 °F 51.0 °F 29.44 in SSW 6.0 mph 11.5 mph 94 % 0.08 in
16:40 52.5 °F 50.8 °F 29.44 in SSW 9.3 mph 13.8 mph 94 % 0.07 in
16:45 52.3 °F 50.6 °F 29.46 in South 4.7 mph 9.2 mph 94 % 0.06 in
16:51 52.1 °F 50.4 °F 29.45 in SSW 5.9 mph 7.0 mph 94 % 0.05 in
16:56 51.8 °F 50.1 °F 29.45 in SSW 5.5 mph 9.2 mph 94 % 0.04 in
17:01 51.6 °F 49.9 °F 29.45 in SSW 6.2 mph 8.1 mph 94 % 0.03 in
17:06 51.4 °F 49.7 °F 29.45 in SSW 4.5 mph 8.1 mph 94 % 0.02 in
17:11 51.2 °F 49.5 °F 29.45 in South 4.4 mph 8.1 mph 94 % 0.01 in
17:16 50.9 °F 49.2 °F 29.46 in South 4.3 mph 9.0 mph 94 % 0.01 in
17:21 50.7 °F 49.3 °F 29.46 in SSW 2.9 mph 11.5 mph 95 % 0.00 in
17:26 50.6 °F 49.2 °F 29.46 in SSW 9.8 mph 12.0 mph 95 % 0.00 in
17:31 50.3 °F 48.9 °F 29.46 in SSW 2.9 mph 11.5 mph 95 % 0.00 in
17:36 50.3 °F 48.9 °F 29.46 in South 2.7 mph 5.8 mph 95 % 0.00 in
17:42 50.1 °F 48.7 °F 29.47 in SW 4.9 mph 10.4 mph 95 % 0.00 in
17:47 49.9 °F 48.5 °F 29.46 in South 5.0 mph 11.5 mph 95 % 0.00 in
17:52 49.8 °F 48.4 °F 29.47 in SW 5.3 mph 9.2 mph 95 % 0.00 in
17:57 49.7 °F 48.3 °F 29.47 in SW 8.2 mph 15.0 mph 95 % 0.00 in
18:07 49.5 °F 48.1 °F 29.49 in SSW 2.6 mph 3.5 mph 95 % 0.00 in
18:12 49.4 °F 48.0 °F 29.49 in SW 3.4 mph 8.1 mph 95 % 0.00 in
18:17 49.3 °F 47.9 °F 29.49 in South 6.5 mph 9.2 mph 95 % 0.00 in
18:22 49.2 °F 47.8 °F 29.49 in SSW 6.2 mph 10.4 mph 95 % 0.00 in
18:33 49.1 °F 47.7 °F 29.49 in SW 4.8 mph 10.4 mph 95 % 0.00 in
18:38 49.0 °F 47.6 °F 29.49 in SSW 4.4 mph 8.1 mph 95 % 0.00 in
18:43 48.9 °F 47.5 °F 29.50 in WSW 3.2 mph 11.5 mph 95 % 0.00 in
18:48 49.0 °F 47.6 °F 29.49 in SSW 3.7 mph 6.9 mph 95 % 0.00 in
18:53 49.0 °F 47.9 °F 29.50 in SW 7.3 mph 12.7 mph 96 % 0.00 in
18:58 49.0 °F 47.9 °F 29.51 in SW 3.3 mph 6.9 mph 96 % 0.00 in
19:03 49.0 °F 47.6 °F 29.51 in WNW 6.7 mph 9.2 mph 95 % 0.00 in
19:08 49.0 °F 47.6 °F 29.52 in WSW 7.1 mph 13.8 mph 95 % 0.00 in
19:13 48.9 °F 47.2 °F 29.52 in WSW 6.9 mph 12.0 mph 94 % 0.00 in
19:18 48.8 °F 46.6 °F 29.52 in West 5.4 mph 5.4 mph 92 % 0.00 in
19:24 48.7 °F 45.9 °F 29.53 in WSW 7.9 mph 9.2 mph 90 % 0.00 in
19:29 48.6 °F 45.8 °F 29.53 in WSW 3.2 mph 9.2 mph 90 % 0.00 in
19:34 48.6 °F 45.8 °F 29.54 in WSW 1.9 mph 3.5 mph 90 % 0.00 in
19:39 48.5 °F 45.4 °F 29.54 in SW 3.5 mph 6.0 mph 89 % 0.00 in
19:44 48.4 °F 45.3 °F 29.54 in WSW 3.6 mph 5.8 mph 89 % 0.00 in
19:49 48.2 °F 45.1 °F 29.55 in SSW 6.8 mph 10.4 mph 89 % 0.00 in
19:54 48.0 °F 44.6 °F 29.55 in SW 4.5 mph 10.4 mph 88 % 0.00 in
20:09 47.3 °F 43.6 °F 29.57 in WSW 8.0 mph 11.5 mph 87 % 0.00 in
20:15 47.2 °F 43.5 °F 29.58 in SSW 4.6 mph 7.0 mph 87 % 0.00 in
20:20 47.1 °F 43.4 °F 29.58 in SSW 8.8 mph 12.0 mph 87 % 0.00 in
20:25 47.0 °F 43.3 °F 29.58 in WSW 5.4 mph 8.1 mph 87 % 0.00 in
20:30 46.9 °F 43.2 °F 29.57 in WSW 3.6 mph 8.1 mph 87 % 0.00 in
20:35 46.8 °F 43.1 °F 29.57 in West 5.6 mph 12.0 mph 87 % 0.00 in
20:40 46.7 °F 42.7 °F 29.57 in SW 3.6 mph 5.8 mph 86 % 0.00 in
20:45 46.6 °F 42.9 °F 29.58 in SSW 5.0 mph 8.1 mph 87 % 0.00 in
20:50 46.6 °F 42.6 °F 29.58 in WSW 2.5 mph 3.5 mph 86 % 0.00 in
20:55 46.5 °F 42.5 °F 29.58 in WSW 2.7 mph 4.0 mph 86 % 0.00 in
21:06 46.2 °F 42.2 °F 29.60 in SSW 2.2 mph 5.8 mph 86 % 0.00 in
21:16 45.9 °F 41.6 °F 29.61 in West 2.0 mph 9.2 mph 85 % 0.00 in
21:21 45.6 °F 40.7 °F 29.59 in WNW 3.1 mph 10.4 mph 83 % 0.00 in
21:26 45.3 °F 40.1 °F 29.60 in WSW 3.2 mph 5.8 mph 82 % 0.00 in
21:31 45.0 °F 39.5 °F 29.61 in WNW 5.1 mph 8.0 mph 81 % 0.00 in
21:36 44.6 °F 38.8 °F 29.63 in West 7.4 mph 11.0 mph 80 % 0.00 in
21:41 44.2 °F 38.4 °F 29.65 in SSW 6.2 mph 11.5 mph 80 % 0.00 in
21:46 44.0 °F 38.5 °F 29.67 in SW 4.3 mph 11.0 mph 81 % 0.00 in
21:51 43.6 °F 37.5 °F 29.67 in SW 4.3 mph 8.1 mph 79 % 0.00 in
21:57 43.3 °F 37.2 °F 29.69 in SW 9.6 mph 16.1 mph 79 % 0.00 in
22:02 43.0 °F 36.6 °F 29.70 in West 6.8 mph 11.5 mph 78 % 0.00 in
22:07 42.6 °F 35.9 °F 29.71 in West 5.6 mph 10.4 mph 77 % 0.00 in
22:12 42.3 °F 35.6 °F 29.71 in NW 3.3 mph 5.8 mph 77 % 0.00 in
22:22 41.3 °F 34.3 °F 29.71 in WSW 7.1 mph 12.7 mph 76 % 0.00 in
22:27 40.8 °F 33.8 °F 29.71 in WNW 10.1 mph 15.0 mph 76 % 0.00 in
22:32 40.4 °F 33.4 °F 29.71 in WNW 5.4 mph 10.4 mph 76 % 0.00 in
22:37 40.1 °F 33.1 °F 29.71 in NW 6.1 mph 10.4 mph 76 % 0.00 in
22:42 39.8 °F 33.2 °F 29.71 in NNW 6.8 mph 15.0 mph 77 % 0.00 in
22:48 39.6 °F 33.3 °F 29.71 in WNW 4.1 mph 11.5 mph 78 % 0.00 in
22:53 39.3 °F 33.0 °F 29.72 in WNW 8.8 mph 13.8 mph 78 % 0.00 in
22:58 39.1 °F 32.8 °F 29.73 in West 4.3 mph 11.5 mph 78 % 0.00 in
23:03 38.9 °F 32.3 °F 29.73 in SW 6.0 mph 16.1 mph 77 % 0.00 in
23:08 38.7 °F 32.1 °F 29.73 in SW 5.0 mph 13.8 mph 77 % 0.00 in
23:13 38.6 °F 32.0 °F 29.74 in West 7.0 mph 11.5 mph 77 % 0.00 in
23:18 38.4 °F 31.8 °F 29.75 in West 6.1 mph 8.1 mph 77 % 0.00 in
23:23 38.3 °F 32.0 °F 29.74 in West 4.6 mph 11.5 mph 78 % 0.00 in
23:28 38.1 °F 31.8 °F 29.74 in WSW 4.7 mph 12.7 mph 78 % 0.00 in
23:33 38.0 °F 31.7 °F 29.74 in West 6.0 mph 11.5 mph 78 % 0.00 in
23:44 37.7 °F 31.8 °F 29.74 in West 5.0 mph 11.5 mph 79 % 0.00 in
23:49 37.6 °F 31.7 °F 29.75 in WSW 8.0 mph 15.0 mph 79 % 0.00 in
23:54 37.5 °F 31.6 °F 29.75 in WNW 5.5 mph 12.0 mph 79 % 0.00 in
23:59 37.5 °F 31.6 °F 29.75 in WNW 5.3 mph 11.5 mph 79 % 0.00 in
Crab Meadow Weather
Compliments of Weather Underground - 2.75 mb

Script developed by  Jim McMurry - jmcmurry@mwt.net Adapted for the template by  Wim van der Kuil - Leuven-Template.eu

Weather Terms: Wind Advisory - Sustained winds of 30 mph or greater or gusts to 45 mph or greater for a duration of one hour or longer.